Time;durP1;ratioP1;P1;durP2;ratioP2;P2;SDS_P1;SDS_P2;PMS_P1;PMS_P2;Temp;Humidity;BMP_temperature;BMP_pressure;BME280_temperature;BME280_humidity;BME280_pressure;Samples;Min_cycle;Max_cycle;Signal;HPM_P1;HPM_P2
2023/02/03 00:02:00;;;;;;;23.10;9.30;;;;;;;-2.68;76.16;101056.89;130335;1267;114715;-68
2023/02/03 00:05:03;;;;;;;25.40;11.30;;;;;;;-2.68;76.22;101061.08;130169;1257;114772;-67
2023/02/03 00:08:06;;;;;;;19.40;10.00;;;;;;;-2.69;76.36;101060.89;130166;1256;114720;-64
2023/02/03 00:11:08;;;;;;;31.30;12.00;;;;;;;-2.70;76.28;101058.95;130147;1275;114724;-68
2023/02/03 00:14:10;;;;;;;29.90;12.20;;;;;;;-2.69;76.65;101063.85;129845;1275;114887;-61
2023/02/03 00:17:14;;;;;;;21.40;11.60;;;;;;;-2.69;76.79;101060.88;130097;1254;115227;-61
2023/02/03 00:20:16;;;;;;;26.30;13.30;;;;;;;-2.68;76.63;101061.27;130398;1256;114687;-66
2023/02/03 00:23:19;;;;;;;27.60;11.90;;;;;;;-2.67;76.93;101058.14;130125;1268;114798;-65
2023/02/03 00:26:22;;;;;;;22.10;11.20;;;;;;;-2.65;77.24;101056.40;130242;1265;114935;-66
2023/02/03 00:29:25;;;;;;;26.80;12.10;;;;;;;-2.65;77.13;101053.44;130160;1256;114760;-66
2023/02/03 00:32:28;;;;;;;23.60;12.00;;;;;;;-2.65;77.36;101055.55;130214;1257;114721;-67
2023/02/03 00:35:31;;;;;;;26.80;13.10;;;;;;;-2.64;77.08;101058.52;130164;1257;115446;-64
2023/02/03 00:38:33;;;;;;;23.10;11.60;;;;;;;-2.64;77.22;101056.60;130356;1257;114695;-67
2023/02/03 00:41:36;;;;;;;26.10;12.30;;;;;;;-2.64;77.25;101054.14;130175;1257;114698;-67
2023/02/03 00:44:38;;;;;;;26.70;13.60;;;;;;;-2.63;77.37;101048.74;130200;1275;114707;-65
2023/02/03 00:47:40;;;;;;;27.40;13.40;;;;;;;-2.62;77.30;101050.34;130381;1258;114792;-60
2023/02/03 00:50:46;;;;;;;25.50;13.90;;;;;;;-2.61;77.42;101045.10;130126;1255;114724;-63
2023/02/03 00:53:49;;;;;;;23.10;11.80;;;;;;;-2.60;77.73;101035.67;129940;1271;114798;-63
2023/02/03 00:56:51;;;;;;;25.20;12.30;;;;;;;-2.60;77.87;101030.42;130243;1259;114716;-69
2023/02/03 00:59:53;;;;;;;25.20;11.90;;;;;;;-2.59;77.41;101027.48;130496;1257;114757;-64
2023/02/03 01:02:56;;;;;;;27.20;11.10;;;;;;;-2.58;78.01;101027.48;130234;1257;114817;-60
2023/02/03 01:06:10;;;;;;;22.30;11.40;;;;;;;-2.57;77.72;101027.33;129964;1263;128458;-63
2023/02/03 01:09:12;;;;;;;25.00;10.90;;;;;;;-2.56;77.77;101021.74;130372;1257;115142;-66
2023/02/03 01:12:14;;;;;;;23.60;10.80;;;;;;;-2.57;77.84;101020.52;130190;1265;114712;-61
2023/02/03 01:15:16;;;;;;;25.20;10.60;;;;;;;-2.57;78.10;101020.88;130200;1264;115125;-61
2023/02/03 01:18:20;;;;;;;18.60;10.40;;;;;;;-2.56;78.05;101015.10;129739;1263;114888;-62
2023/02/03 01:21:24;;;;;;;23.10;11.00;;;;;;;-2.55;78.37;101010.92;130152;1264;115292;-63
2023/02/03 01:24:29;;;;;;;25.50;10.20;;;;;;;-2.54;77.80;101006.21;130121;1257;128598;-66
2023/02/03 01:27:32;;;;;;;21.10;10.60;;;;;;;-2.53;77.72;101001.50;129890;1257;114806;-60
2023/02/03 01:30:34;;;;;;;25.80;10.70;;;;;;;-2.52;78.36;100994.88;130162;1264;115162;-62
2023/02/03 01:33:39;;;;;;;24.30;11.80;;;;;;;-2.51;78.12;100990.19;130248;1275;114832;-63
2023/02/03 01:36:42;;;;;;;;;;;;;;;-2.49;78.21;100981.29;129865;1264;114820;-63
2023/02/03 01:39:44;;;;;;;34.80;12.40;;;;;;;-2.48;78.66;100978.16;130188;1257;114807;-62
2023/02/03 01:42:47;;;;;;;26.70;12.60;;;;;;;-2.47;78.45;100975.35;130155;1265;114798;-61
2023/02/03 01:45:49;;;;;;;21.40;11.30;;;;;;;-2.46;78.60;100964.38;130205;1264;114785;-61
2023/02/03 01:48:53;;;;;;;23.50;12.40;;;;;;;-2.43;78.56;100950.75;129982;1258;114896;-64
2023/02/03 01:51:55;;;;;;;21.90;11.90;;;;;;;-2.41;78.40;100942.05;130498;1256;114776;-67
2023/02/03 01:55:50;;;;;;;24.80;13.30;;;;;;;-2.39;78.55;100934.73;131264;1257;114822;-64
2023/02/03 01:59:53;;;;;;;29.70;14.00;;;;;;;-2.34;79.04;100928.67;129307;1285;128884;-64
2023/02/03 02:03:23;;;;;;;31.90;14.40;;;;;;;-2.29;78.68;100914.03;127948;1279;115329;-63
2023/02/03 02:11:20;;;;;;;;;;;;;;;;;;;;;
2023/02/03 02:15:23;;;;;;;25.90;13.60;;;;;;;-2.12;79.23;100877.33;124729;1308;114872;-64
2023/02/03 02:19:41;;;;;;;32.20;13.90;;;;;;;-2.07;79.22;100872.49;124540;1330;129808;-64
2023/02/03 02:32:12;;;;;;;18.20;9.80;;;;;;;-1.89;79.41;100887.21;124144;1312;114969;-63
2023/02/03 02:36:21;;;;;;;30.60;13.70;;;;;;;-1.82;79.65;100875.38;125109;1297;115042;-63
2023/02/03 02:40:40;;;;;;;27.80;14.10;;;;;;;-1.77;79.60;100872.12;125562;1303;130136;-64
2023/02/03 02:44:37;;;;;;;34.00;14.70;;;;;;;-1.71;79.66;100873.21;126347;1308;115290;-62
2023/02/03 02:48:51;;;;;;;27.90;14.10;;;;;;;-1.66;79.91;100860.15;127596;1294;114928;-64
2023/02/03 02:52:55;;;;;;;31.30;14.90;;;;;;;-1.61;79.79;100847.75;129060;1265;114919;-64
2023/02/03 02:56:49;;;;;;;;;;;;;;;;;;;;;
2023/02/03 03:00:34;;;;;;;;;;;;;;;-1.50;79.54;100815.27;127327;1298;127775;-63
2023/02/03 03:04:16;;;;;;;27.60;14.00;;;;;;;-1.47;79.62;100806.17;127546;1301;115297;-63
2023/02/03 03:08:27;;;;;;;37.50;14.90;;;;;;;-1.43;79.94;100801.13;127606;1293;116366;-65
2023/02/03 03:12:31;;;;;;;25.00;13.10;;;;;;;-1.38;79.80;100789.59;126716;1291;114764;-64
2023/02/03 03:16:21;;;;;;;24.90;13.50;;;;;;;-1.33;80.12;100771.44;126525;1292;114945;-65
2023/02/03 03:20:23;;;;;;;26.70;12.80;;;;;;;-1.30;79.73;100764.79;126248;1307;128359;-65
2023/02/03 03:24:29;;;;;;;24.30;12.50;;;;;;;-1.26;79.89;100747.98;124833;1303;115497;-66
2023/02/03 03:32:43;;;;;;;;;;;;;;;;;;;;;
2023/02/03 03:36:55;;;;;;;26.80;12.20;;;;;;;-1.12;79.96;100749.30;128801;1269;129027;-64
2023/02/03 03:40:57;;;;;;;22.90;11.70;;;;;;;-1.06;80.02;100743.00;129071;1277;115245;-66
2023/02/03 03:45:00;;;;;;;23.00;10.60;;;;;;;-1.01;80.11;100735.86;124680;1282;5448919;-65
2023/02/03 03:49:09;;;;;;;24.60;11.20;;;;;;;-0.97;80.11;100743.23;127560;1305;114931;-65
2023/02/03 03:53:11;;;;;;;21.80;10.70;;;;;;;-0.92;79.85;100744.31;127089;1287;114947;-66
2023/02/03 03:57:14;;;;;;;18.80;9.70;;;;;;;-0.88;80.19;100732.58;125949;1299;128467;-64
2023/02/03 04:01:13;;;;;;;18.90;9.20;;;;;;;-0.84;80.28;100723.48;125983;1297;115595;-65
2023/02/03 04:09:26;;;;;;;;;;;;;;;;;;;;;
2023/02/03 04:13:29;;;;;;;20.30;10.40;;;;;;;-0.73;79.82;100719.13;128632;1274;128900;-65
2023/02/03 04:17:22;;;;;;;;;;;;;;;;;;;;;
2023/02/03 04:21:27;;;;;;;;;;;;;;;;;;;;;
2023/02/03 04:25:30;;;;;;;20.60;9.50;;;;;;;-0.63;79.85;100708.81;125941;1311;115424;-64
2023/02/03 04:46:05;;;;;;;18.30;9.80;;;;;;;-0.48;79.40;100656.74;127819;1301;115230;-64
2023/02/03 04:50:26;;;;;;;15.30;8.70;;;;;;;-0.46;79.60;100639.91;123080;1286;5417605;-64
2023/02/03 04:54:09;;;;;;;18.60;10.30;;;;;;;-0.43;79.49;100631.67;126100;1316;114951;-64
2023/02/03 04:58:11;;;;;;;16.30;7.20;;;;;;;-0.39;79.51;100632.55;125464;1322;114942;-63
2023/02/03 05:06:45;;;;;;;;;;;;;;;;;;;;;
2023/02/03 05:10:46;;;;;;;;;;;;;;;;;;;;;
2023/02/03 05:14:50;;;;;;;11.00;6.20;;;;;;;-0.18;79.02;100596.58;126826;1308;116502;-66
2023/02/03 05:18:41;;;;;;;;;;;;;;;;;;;;;
2023/02/03 05:22:37;;;;;;;13.90;7.80;;;;;;;-0.09;79.27;100590.24;124461;1313;114863;-66
2023/02/03 05:26:30;;;;;;;;;;;;;;;;;;;;;
2023/02/03 05:30:54;;;;;;;18.60;7.80;;;;;;;0.03;78.67;100579.86;126330;1295;636030;-64
2023/02/03 05:34:55;;;;;;;17.60;8.00;;;;;;;0.05;78.73;100578.45;129008;1267;127501;-65
2023/02/03 05:38:41;;;;;;;18.20;8.70;;;;;;;0.08;78.80;100573.35;127514;1298;114845;-66
2023/02/03 05:42:39;;;;;;;;;;;;;;;;;;;;;
2023/02/03 05:46:57;;;;;;;17.40;7.10;;;;;;;0.16;79.11;100569.31;125907;1316;115054;-64
2023/02/03 05:50:37;;;;;;;;;;;;;;;;;;;;;
2023/02/03 05:54:36;;;;;;;;;;;;;;;;;;;;;
2023/02/03 06:03:01;;;;;;;22.90;11.80;;;;;;;0.26;79.36;100523.96;126263;1296;636202;-66
2023/02/03 06:07:01;;;;;;;23.70;11.00;;;;;;;0.27;79.41;100517.98;127689;1280;128840;-64
2023/02/03 06:11:05;;;;;;;19.00;9.80;;;;;;;0.27;79.68;100517.80;127474;1287;115277;-64
2023/02/03 06:15:05;;;;;;;21.70;10.50;;;;;;;0.28;79.65;100506.20;123031;1290;5604516;-65
2023/02/03 06:19:07;;;;;;;23.30;9.30;;;;;;;0.28;79.92;100492.67;126363;1292;114950;-65
2023/02/03 06:23:08;;;;;;;16.70;8.60;;;;;;;0.28;79.78;100480.56;126028;1298;114898;-65
2023/02/03 06:31:30;;;;;;;17.80;9.80;;;;;;;0.33;80.01;100472.64;126412;1295;636331;-64
2023/02/03 06:35:33;;;;;;;17.00;9.40;;;;;;;0.34;80.19;100468.58;128586;1273;128902;-66
2023/02/03 06:39:38;;;;;;;20.70;10.00;;;;;;;0.36;80.19;100452.94;127583;1283;116564;-65
2023/02/03 06:43:39;;;;;;;21.90;10.50;;;;;;;0.39;80.48;100447.66;121183;1287;7545375;-66
2023/02/03 06:47:40;;;;;;;18.60;10.10;;;;;;;0.42;80.49;100436.91;125461;1301;114888;-67
2023/02/03 06:51:42;;;;;;;20.50;10.90;;;;;;;0.44;80.64;100427.77;125008;1307;114881;-64
2023/02/03 07:00:00;;;;;;;;;;;;;;;;;;;;;
2023/02/03 07:04:02;;;;;;;;;;;;;;;;;;;;;
2023/02/03 07:07:56;;;;;;;;;;;;;;;;;;;;;
2023/02/03 07:11:38;;;;;;;15.50;8.80;;;;;;;0.58;81.41;100358.44;122134;1301;5423250;-66
2023/02/03 07:15:32;;;;;;;16.20;9.00;;;;;;;0.65;81.38;100351.36;125260;1311;115266;-64
2023/02/03 07:19:25;;;;;;;;;;;;;;;;;;;;;
2023/02/03 07:27:34;;;;;;;11.70;7.80;;;;;;;0.78;81.57;100311.17;126357;1298;635280;-64
2023/02/03 07:31:38;;;;;;;12.40;7.70;;;;;;;0.77;81.83;100299.92;128049;1285;128835;-65
2023/02/03 07:35:10;;;;;;;10.40;6.90;;;;;;;0.78;81.65;100287.27;127146;1289;115370;-63
2023/02/03 07:39:31;;;;;;;10.90;6.80;;;;;;;0.79;81.82;100282.86;126573;1291;114890;-64
2023/02/03 07:42:56;;;;;;;9.20;6.20;;;;;;;0.80;82.01;100273.71;121872;1307;115019;-65
2023/02/03 07:46:56;;;;;;;;;;;;;;;;;;;;;
2023/02/03 07:50:39;;;;;;;8.00;5.90;;;;;;;0.84;82.06;100256.43;124468;1322;115353;-63
2023/02/03 07:58:53;;;;;;;9.90;5.80;;;;;;;0.91;82.11;100223.66;126428;1292;636018;-63
2023/02/03 08:02:48;;;;;;;;;;;;;;;;;;;;;
2023/02/03 08:06:52;;;;;;;10.10;7.10;;;;;;;0.89;82.16;100198.89;128068;1272;115344;-64
2023/02/03 08:10:56;;;;;;;13.60;7.30;;;;;;;0.90;82.29;100197.66;123135;1304;5453263;-65
2023/02/03 08:14:47;;;;;;;9.50;6.40;;;;;;;0.87;82.58;100186.78;125452;1322;114920;-63
2023/02/03 08:23:05;;;;;;;8.70;6.60;;;;;;;0.92;82.42;100164.41;126228;1297;635894;-64
2023/02/03 08:27:10;;;;;;;9.80;6.50;;;;;;;0.91;82.47;100145.94;128167;1279;128876;-64
2023/02/03 08:30:55;;;;;;;;;;;;;;;;;;;;;
2023/02/03 08:34:50;;;;;;;;;;;;;;;;;;;;;
2023/02/03 08:38:37;;;;;;;8.30;5.90;;;;;;;1.01;82.58;100112.05;121872;1320;114876;-64
2023/02/03 08:42:39;;;;;;;10.30;6.60;;;;;;;1.03;82.72;100108.69;125061;1325;114970;-64
2023/02/03 08:46:23;;;;;;;;;;;;;;;;;;;;;
2023/02/03 08:50:12;;;;;;;4.00;2.70;;;;;;;1.11;82.78;100096.62;124709;1308;129928;-64
2023/02/03 08:54:04;;;;;;;;;;;;;;;;;;;;;
2023/02/03 08:58:16;;;;;;;14.60;7.50;;;;;;;1.21;82.84;100069.39;126276;1306;635975;-64
2023/02/03 09:02:12;;;;;;;;;;;;;;;;;;;;;
2023/02/03 09:05:49;;;;;;;;;;;;;;;;;;;;;
2023/02/03 09:10:10;;;;;;;10.00;6.40;;;;;;;1.31;82.85;100040.58;126447;1301;114815;-66
2023/02/03 09:13:44;;;;;;;;;;;;;;;;;;;;;
2023/02/03 09:17:26;;;;;;;14.70;8.50;;;;;;;1.45;83.06;100031.89;125921;1317;115298;-65
2023/02/03 09:21:26;;;;;;;11.80;7.30;;;;;;;1.53;82.83;100012.58;125782;1312;114872;-63
2023/02/03 09:25:13;;;;;;;13.00;7.90;;;;;;;1.61;82.95;99999.41;125321;1304;129759;-65
2023/02/03 09:29:07;;;;;;;18.70;9.00;;;;;;;1.68;82.87;100004.76;124621;1329;116941;-66
2023/02/03 09:32:57;;;;;;;;;;;;;;;;;;;;;
2023/02/03 09:37:19;;;;;;;16.60;9.30;;;;;;;1.84;82.88;99988.09;126308;1293;636797;-63
2023/02/03 09:41:11;;;;;;;;;;;;;;;;;;;;;
2023/02/03 09:45:17;;;;;;;13.30;10.30;;;;;;;1.94;82.97;99960.77;127234;1285;115476;-64
2023/02/03 09:48:48;;;;;;;15.90;10.80;;;;;;;1.99;82.89;99935.84;124626;1293;3311453;-64
2023/02/03 09:52:26;;;;;;;;;;;;;;;;;;;;;
2023/02/03 09:56:24;;;;;;;;;;;;;;;;;;;;;
2023/02/03 10:00:14;;;;;;;28.00;19.90;;;;;;;2.17;83.17;99912.58;127502;1289;115031;-63
2023/02/03 10:04:11;;;;;;;24.40;18.20;;;;;;;2.21;83.06;99921.65;127682;1283;128883;-66
2023/02/03 10:08:22;;;;;;;21.80;16.70;;;;;;;2.26;83.17;99904.63;127852;1283;115240;-67
2023/02/03 10:12:35;;;;;;;20.60;15.30;;;;;;;2.29;83.02;99893.64;127014;1289;114957;-67
2023/02/03 10:16:56;;;;;;;25.10;14.00;;;;;;;2.35;83.14;99866.73;126117;1298;114794;-67
2023/02/03 10:21:01;;;;;;;;;;;;;;;;;;;;;
2023/02/03 10:25:07;;;;;;;21.70;12.40;;;;;;;2.47;83.06;99833.14;128149;1299;127648;-65
2023/02/03 10:29:03;;;;;;;;;;;;;;;;;;;;;
2023/02/03 10:33:03;;;;;;;;;;;;;;;;;;;;;
2023/02/03 10:37:21;;;;;;;28.10;16.90;;;;;;;2.59;83.13;99792.66;126573;1288;115090;-64
2023/02/03 10:41:16;;;;;;;16.60;11.40;;;;;;;2.60;83.00;99777.84;127120;1283;115252;-66
2023/02/03 10:45:17;;;;;;;;;;;;;;;;;;;;;
2023/02/03 10:49:20;;;;;;;;;;;;;;;;;;;;;
2023/02/03 10:53:31;;;;;;;15.40;10.60;;;;;;;2.65;83.14;99718.27;126760;1305;115048;-65
2023/02/03 10:57:24;;;;;;;18.50;10.10;;;;;;;2.69;83.12;99708.66;126659;1307;114845;-64
2023/02/03 11:01:22;;;;;;;15.70;10.20;;;;;;;2.72;83.35;99698.90;126749;1292;114968;-64
2023/02/03 11:05:25;;;;;;;21.50;11.10;;;;;;;2.76;83.17;99692.78;126474;1295;128811;-65
2023/02/03 11:09:16;;;;;;;;;;;;;;;;;;;;;
2023/02/03 11:17:21;;;;;;;24.80;12.60;;;;;;;2.79;83.37;99660.63;125973;1318;114945;-63
2023/02/03 11:25:26;;;;;;;;;;;;;;;;;;;;;
2023/02/03 11:29:20;;;;;;;23.40;13.60;;;;;;;2.94;83.43;99610.80;129032;1289;127836;-66
2023/02/03 11:33:16;;;;;;;;;;;;;;;;;;;;;
2023/02/03 11:37:21;;;;;;;24.10;14.40;;;;;;;3.02;83.61;99594.52;123666;1288;5454819;-65
2023/02/03 11:41:27;;;;;;;23.80;15.00;;;;;;;3.06;83.69;99579.02;126223;1295;115078;-66
2023/02/03 11:45:19;;;;;;;22.20;13.30;;;;;;;3.12;83.68;99564.92;125786;1301;114764;-65
2023/02/03 11:49:39;;;;;;;23.50;12.00;;;;;;;3.16;83.94;99557.38;125077;1311;129759;-65
2023/02/03 11:53:58;;;;;;;18.80;10.90;;;;;;;3.23;83.94;99546.42;125038;1310;115240;-66
2023/02/03 11:58:18;;;;;;;12.60;8.20;;;;;;;3.29;83.92;99545.88;125073;1309;115034;-67
2023/02/03 12:02:20;;;;;;;12.40;7.40;;;;;;;3.34;84.12;99535.13;125108;1308;114914;-66
2023/02/03 12:06:28;;;;;;;10.10;7.70;;;;;;;3.40;84.09;99516.58;125015;1318;114964;-66
2023/02/03 12:10:35;;;;;;;16.10;6.60;;;;;;;3.48;84.27;99501.31;125398;1304;128001;-67
2023/02/03 12:14:16;;;;;;;;;;;;;;;3.55;84.35;99494.91;125259;1323;115003;-65
2023/02/03 12:18:08;;;;;;;;;;;;;;;;;;;;;
2023/02/03 12:22:31;;;;;;;10.90;4.20;;;;;;;3.69;84.40;99478.52;126901;1295;114849;-68
2023/02/03 12:26:51;;;;;;;7.20;2.80;;;;;;;3.78;84.51;99469.39;127331;1302;114854;-66
2023/02/03 12:30:53;;;;;;;4.30;2.80;;;;;;;3.90;84.62;99451.31;127861;1283;127958;-67
2023/02/03 12:35:06;;;;;;;;;;;;;;;;;;;;;
2023/02/03 12:39:16;;;;;;;3.60;2.00;;;;;;;4.18;85.10;99432.27;128365;1288;114987;-66
2023/02/03 12:43:32;;;;;;;5.50;2.60;;;;;;;4.36;85.28;99419.20;128625;1277;114907;-67
2023/02/03 12:51:32;;;;;;;4.00;2.40;;;;;;;4.75;85.00;99402.48;128787;1270;129080;-69
2023/02/03 12:55:49;;;;;;;4.50;2.50;;;;;;;4.87;85.09;99392.28;129022;1289;115329;-68
2023/02/03 12:59:28;;;;;;;;;;;;;;;;;;;;;
2023/02/03 13:03:15;;;;;;;;;;;;;;;;;;;;;
2023/02/03 13:07:11;;;;;;;;;;;;;;;;;;;;;
2023/02/03 13:10:48;;;;;;;;;;;;;;;;;;;;;
2023/02/03 13:14:40;;;;;;;5.20;3.50;;;;;;;5.19;84.97;99379.48;129522;1268;114802;-67
2023/02/03 13:18:42;;;;;;;3.80;2.60;;;;;;;5.19;85.16;99376.84;129819;1263;115133;-67
2023/02/03 13:22:36;;;;;;;5.00;3.90;;;;;;;5.19;85.32;99376.99;129257;1270;114994;-67
2023/02/03 13:26:45;;;;;;;;;;;;;;;;;;;;;
2023/02/03 13:30:52;;;;;;;5.90;3.20;;;;;;;5.22;85.12;99370.66;127603;1281;128902;-67
2023/02/03 13:35:16;;;;;;;7.00;4.20;;;;;;;5.26;85.29;99370.86;127638;1286;114931;-66
2023/02/03 13:39:56;;;;;;;10.70;6.10;;;;;;;5.29;85.50;99384.91;127612;1280;114929;-65
2023/02/03 13:44:00;;;;;;;16.70;9.00;;;;;;;5.30;85.49;99402.36;127657;1285;114891;-64
2023/02/03 13:48:07;;;;;;;15.90;8.60;;;;;;;5.32;85.72;99412.04;126502;1295;114902;-65
2023/02/03 13:52:20;;;;;;;;;;;;;;;;;;;;;
2023/02/03 13:56:33;;;;;;;;;;;;;;;;;;;;;
2023/02/03 14:00:30;;;;;;;;;;;;;;;;;;;;;
2023/02/03 14:04:07;;;;;;;;;;;;;;;;;;;;;
2023/02/03 14:08:06;;;;;;;;;;;;;;;;;;;;;
2023/02/03 14:12:41;;;;;;;15.30;6.50;;;;;;;5.70;85.44;99406.14;126426;1313;127726;-66
2023/02/03 14:16:55;;;;;;;13.70;5.50;;;;;;;5.71;85.19;99405.91;125845;1301;115454;-67
2023/02/03 14:20:56;;;;;;;14.20;5.70;;;;;;;5.71;85.11;99401.16;125934;1300;114859;-67
2023/02/03 14:24:51;;;;;;;21.70;7.10;;;;;;;5.67;84.97;99396.18;125684;1317;115163;-67
2023/02/03 14:33:04;;;;;;;;;;;;;;;;;;;;;
2023/02/03 14:41:58;;;;;;;15.60;5.80;;;;;;;5.53;84.53;99414.34;126258;1296;637558;-69
2023/02/03 14:46:07;;;;;;;18.50;5.80;;;;;;;5.50;84.63;99417.48;127583;1281;128463;-68
2023/02/03 14:50:15;;;;;;;9.70;3.40;;;;;;;5.47;84.55;99420.41;127777;1281;115480;-68
2023/02/03 14:54:24;;;;;;;6.40;3.30;;;;;;;5.42;84.35;99424.36;124338;1277;5515832;-69
2023/02/03 14:58:27;;;;;;;;;;;;;;;;;;;;;
2023/02/03 15:02:29;;;;;;;;;;;;;;;;;;;;;
2023/02/03 15:06:20;;;;;;;;;;;;;;;;;;;;;
2023/02/03 15:10:19;;;;;;;;;;;;;;;;;;;;;
2023/02/03 15:14:31;;;;;;;16.70;3.90;;;;;;;5.24;84.44;99463.36;127273;1289;115439;-67
2023/02/03 15:18:34;;;;;;;11.00;3.00;;;;;;;5.23;84.45;99471.19;126328;1290;114899;-69
2023/02/03 15:22:34;;;;;;;12.70;3.70;;;;;;;5.24;84.56;99476.46;126972;1292;114901;-68
2023/02/03 15:26:16;;;;;;;;;;;;;;;;;;;;;
2023/02/03 15:30:03;;;;;;;;;;;;;;;;;;;;;
2023/02/03 15:34:04;;;;;;;19.30;4.40;;;;;;;5.22;84.55;99469.42;125374;1302;114978;-67
2023/02/03 15:38:09;;;;;;;18.40;4.70;;;;;;;5.22;84.31;99474.76;125332;1310;115010;-66
2023/02/03 15:42:02;;;;;;;9.80;3.40;;;;;;;5.20;84.28;99475.54;125725;1322;115240;-68
2023/02/03 15:45:41;;;;;;;;;;;;;;;;;;;;;
2023/02/03 15:49:36;;;;;;;;;;;;;;;;;;;;;
2023/02/03 15:53:34;;;;;;;13.60;4.20;;;;;;;5.16;84.09;99487.02;125545;1319;115477;-67
2023/02/03 15:57:37;;;;;;;20.00;4.40;;;;;;;5.13;83.98;99486.79;125246;1309;114899;-67
2023/02/03 16:01:40;;;;;;;22.40;7.00;;;;;;;5.10;84.01;99485.34;125981;1300;114885;-65
2023/02/03 16:05:41;;;;;;;18.40;4.30;;;;;;;5.05;83.85;99496.15;126684;1291;114948;-67
2023/02/03 16:09:42;;;;;;;;;;;;;;;;;;;;;
2023/02/03 16:13:42;;;;;;;18.20;5.40;;;;;;;4.99;84.04;99498.31;127235;1283;115568;-68
2023/02/03 16:17:48;;;;;;;18.10;4.00;;;;;;;4.99;84.05;99509.66;127352;1289;114897;-68
2023/02/03 16:21:38;;;;;;;20.00;6.80;;;;;;;5.00;84.17;99514.03;126795;1286;114885;-67
2023/02/03 16:25:40;;;;;;;20.50;8.00;;;;;;;4.99;84.12;99522.54;126914;1289;114948;-67
2023/02/03 16:52:43;;;;;;;;;;;;;;;;;;;;;
2023/02/03 16:56:38;;;;;;;;;;;;;;;;;;;;;
2023/02/03 17:00:26;;;;;;;15.00;3.50;;;;;;;4.69;83.11;99605.96;124850;1313;114982;-66
2023/02/03 17:04:28;;;;;;;21.00;5.10;;;;;;;4.66;83.12;99607.30;124391;1324;115241;-66
2023/02/03 17:12:33;;;;;;;23.70;5.40;;;;;;;4.65;83.12;99613.38;126134;1298;635431;-66
2023/02/03 17:16:29;;;;;;;21.60;4.30;;;;;;;4.61;83.07;99615.98;128419;1280;129178;-65
2023/02/03 17:20:15;;;;;;;;;;;;;;;;;;;;;
2023/02/03 17:24:12;;;;;;;;;;;;;;;;;;;;;
2023/02/03 17:28:15;;;;;;;27.70;4.60;;;;;;;4.57;82.89;99621.10;122511;1292;114912;-66
2023/02/03 17:32:15;;;;;;;;;;;;;;;;;;;;;
2023/02/03 17:36:13;;;;;;;;;;;;;;;;;;;;;
2023/02/03 17:44:15;;;;;;;44.10;6.60;;;;;;;4.59;82.76;99626.33;125544;1310;635763;-66
2023/02/03 17:48:14;;;;;;;;;;;;;;;;;;;;;
2023/02/03 17:52:22;;;;;;;31.60;5.90;;;;;;;4.57;82.48;99623.36;128368;1279;115237;-68
2023/02/03 17:56:10;;;;;;;27.20;4.90;;;;;;;4.57;82.72;99626.38;122949;1292;5477549;-67
2023/02/03 18:00:06;;;;;;;;;;;;;;;;;;;;;
2023/02/03 18:04:08;;;;;;;38.60;6.90;;;;;;;4.56;82.61;99630.11;125723;1301;114852;-66
2023/02/03 18:07:53;;;;;;;;;;;;;;;;;;;;;
2023/02/03 18:11:54;;;;;;;;;;;;;;;;;;;;;
2023/02/03 18:15:45;;;;;;;29.60;6.50;;;;;;;4.55;82.86;99633.01;124852;1330;114983;-66
2023/02/03 18:24:00;;;;;;;42.00;7.50;;;;;;;4.55;82.92;99628.40;126382;1295;635800;-65
2023/02/03 18:27:57;;;;;;;34.60;6.80;;;;;;;4.52;83.04;99633.63;129042;1275;128111;-67
2023/02/03 18:31:53;;;;;;;25.70;5.40;;;;;;;4.52;82.90;99636.10;128704;1278;114988;-66
2023/02/03 18:35:55;;;;;;;31.10;5.60;;;;;;;4.52;82.98;99634.17;128846;1274;114893;-67
2023/02/03 18:39:33;;;;;;;;;;;;;;;;;;;;;
2023/02/03 18:43:38;;;;;;;31.30;6.50;;;;;;;4.52;83.00;99640.01;128572;1281;114742;-68
2023/02/03 18:51:59;;;;;;;29.80;5.20;;;;;;;4.56;82.92;99653.79;125826;1299;641023;-66
2023/02/03 18:56:00;;;;;;;26.40;5.40;;;;;;;4.56;83.01;99653.98;128968;1287;127845;-66
2023/02/03 18:59:39;;;;;;;;;;;;;;;;;;;;;
2023/02/03 19:03:48;;;;;;;28.60;5.70;;;;;;;4.58;82.93;99666.14;128449;1275;114770;-67
2023/02/03 19:07:27;;;;;;;;;;;;;;;;;;;;;
2023/02/03 19:11:32;;;;;;;28.20;6.40;;;;;;;4.62;82.85;99670.42;128201;1283;114870;-67
2023/02/03 19:15:25;;;;;;;;;;;;;;;;;;;;;
2023/02/03 19:19:29;;;;;;;26.90;5.00;;;;;;;4.65;82.93;99670.14;127080;1283;128040;-66
2023/02/03 19:23:31;;;;;;;28.10;5.00;;;;;;;4.66;83.01;99667.98;126107;1299;115388;-66
2023/02/03 19:31:56;;;;;;;35.60;6.60;;;;;;;4.72;83.19;99666.19;125881;1297;636042;-66
2023/02/03 19:35:51;;;;;;;;;;;;;;;;;;;;;
2023/02/03 19:39:50;;;;;;;25.90;4.90;;;;;;;4.69;83.47;99661.14;127774;1284;115294;-65
2023/02/03 19:43:51;;;;;;;30.70;5.80;;;;;;;4.68;83.35;99662.23;123851;1285;5520376;-66
2023/02/03 19:47:56;;;;;;;26.30;5.30;;;;;;;4.67;83.36;99656.60;126611;1295;114808;-66
2023/02/03 19:51:59;;;;;;;;;;;;;;;;;;;;;
2023/02/03 19:55:54;;;;;;;29.70;5.10;;;;;;;4.66;83.38;99653.64;125744;1299;115279;-66
2023/02/03 19:59:56;;;;;;;22.10;4.90;;;;;;;4.68;83.59;99648.98;125032;1312;129767;-65
2023/02/03 20:03:42;;;;;;;24.80;4.70;;;;;;;4.68;83.50;99648.08;124418;1313;116470;-65
2023/02/03 20:07:34;;;;;;;;;;;;;;;;;;;;;
2023/02/03 20:12:01;;;;;;;;;;;;;;;;;;;;;
2023/02/03 20:16:06;;;;;;;30.60;5.80;;;;;;;4.74;83.69;99656.75;127525;1281;128281;-66
2023/02/03 20:20:08;;;;;;;28.30;5.30;;;;;;;4.73;83.49;99655.88;127537;1280;115326;-65
2023/02/03 20:24:02;;;;;;;24.20;4.70;;;;;;;4.72;83.64;99658.55;122039;1292;5634090;-67
2023/02/03 20:28:04;;;;;;;19.70;4.40;;;;;;;4.72;83.71;99649.89;126117;1298;114957;-66
2023/02/03 20:31:54;;;;;;;;;;;;;;;;;;;;;
2023/02/03 20:40:13;;;;;;;;;;;;;;;;;;;;;
2023/02/03 20:44:20;;;;;;;25.60;6.30;;;;;;;4.76;83.73;99653.66;127304;1305;128587;-65
2023/02/03 20:48:22;;;;;;;22.80;5.00;;;;;;;4.77;83.81;99651.13;127450;1303;115005;-66
2023/02/03 20:52:25;;;;;;;28.70;5.50;;;;;;;4.78;83.78;99650.05;123848;1289;5450959;-66
2023/02/03 20:56:23;;;;;;;;;;;;;;;;;;;;;
2023/02/03 20:59:46;;;;;;;;;;;;;;;;;;;;;
2023/02/03 21:07:29;;;;;;;16.40;4.00;;;;;;;4.79;83.88;99642.05;126745;1297;129585;-65
2023/02/03 21:11:49;;;;;;;25.80;4.70;;;;;;;4.79;84.04;99642.60;126931;1290;115475;-66
2023/02/03 21:15:29;;;;;;;22.00;4.30;;;;;;;4.77;84.03;99643.18;125625;1310;114951;-66
2023/02/03 21:19:37;;;;;;;23.00;4.60;;;;;;;4.76;84.19;99641.08;124964;1326;115329;-65
2023/02/03 21:23:20;;;;;;;20.90;4.90;;;;;;;4.75;84.09;99639.89;124971;1324;114989;-65
2023/02/03 21:26:41;;;;;;;22.90;4.10;;;;;;;4.73;84.25;99640.13;125276;1324;128330;-66
2023/02/03 21:29:54;;;;;;;24.00;4.50;;;;;;;4.74;84.20;99643.30;125430;1324;115397;-66
2023/02/03 21:33:55;;;;;;;20.40;5.00;;;;;;;4.73;84.26;99638.55;126225;1311;115385;-67
2023/02/03 21:37:43;;;;;;;14.10;4.00;;;;;;;4.73;84.18;99636.23;126555;1295;115166;-66
2023/02/03 21:44:53;;;;;;;16.10;3.50;;;;;;;4.71;84.34;99634.35;126035;1301;128286;-66
2023/02/03 21:49:09;;;;;;;13.80;3.60;;;;;;;4.70;84.31;99631.21;125972;1318;116503;-71
2023/02/03 21:52:21;;;;;;;12.60;3.50;;;;;;;4.68;84.51;99634.30;126227;1307;114880;-67
2023/02/03 21:56:10;;;;;;;;;;;;;;;;;;;;;
2023/02/03 21:59:33;;;;;;;19.40;4.50;;;;;;;4.66;84.67;99638.06;127058;1297;114911;-66
2023/02/03 22:08:03;;;;;;;24.50;4.30;;;;;;;4.66;84.92;99636.68;126354;1301;114868;-66
2023/02/03 22:11:34;;;;;;;;;;;;;;;;;;;;;
2023/02/03 22:19:16;;;;;;;;;;;;;;;;;;;;;
2023/02/03 22:23:07;;;;;;;12.80;3.60;;;;;;;4.62;85.04;99629.91;125425;1310;128910;-66
2023/02/03 22:26:47;;;;;;;16.20;3.20;;;;;;;4.64;84.98;99630.56;125525;1308;115285;-65
2023/02/03 22:30:26;;;;;;;12.70;3.20;;;;;;;4.64;85.06;99633.74;125574;1321;114958;-67
2023/02/03 22:34:17;;;;;;;;;;;;;;;;;;;;;
2023/02/03 22:37:58;;;;;;;15.40;2.90;;;;;;;4.63;85.11;99627.93;125618;1317;114804;-65
2023/02/03 22:41:50;;;;;;;14.70;3.10;;;;;;;4.64;85.01;99627.18;125855;1299;129911;-65
2023/02/03 22:45:37;;;;;;;13.10;3.00;;;;;;;4.65;85.00;99633.14;125874;1317;115416;-66
2023/02/03 22:49:38;;;;;;;11.50;3.00;;;;;;;4.65;84.87;99625.21;125493;1307;116566;-66
2023/02/03 22:53:10;;;;;;;;;;;;;;;;;;;;;
2023/02/03 22:56:52;;;;;;;11.00;3.40;;;;;;;4.66;84.92;99618.80;126066;1317;116412;-66
2023/02/03 23:00:51;;;;;;;11.10;2.80;;;;;;;4.66;84.90;99624.13;125580;1312;129622;-66
2023/02/03 23:04:15;;;;;;;;;;;;;;;;;;;;;
2023/02/03 23:08:13;;;;;;;;;;;;;;;;;;;;;